sensor_id;sensor_type;location;lat;lon;timestamp;pressure;altitude;pressure_sealevel;temperature;humidity
28456;BME280;15682;56.742;38.866;2022-12-18T00:01:16;99440.0;;;-5.2;95.3
28456;BME280;15682;56.742;38.866;2022-12-18T00:03:08;99430.0;;;-5.3;95.0
28456;BME280;15682;56.742;38.866;2022-12-18T00:05:08;99420.0;;;-5.3;95.0
28456;BME280;15682;56.742;38.866;2022-12-18T00:07:07;99420.0;;;-5.3;95.0
28456;BME280;15682;56.742;38.866;2022-12-18T00:09:08;99410.0;;;-5.3;95.0
28456;BME280;15682;56.742;38.866;2022-12-18T00:11:10;99400.0;;;-5.3;95.0
28456;BME280;15682;56.742;38.866;2022-12-18T00:13:07;99390.0;;;-5.4;95.4
28456;BME280;15682;56.742;38.866;2022-12-18T00:15:07;99380.0;;;-5.4;95.4
28456;BME280;15682;56.742;38.866;2022-12-18T00:17:06;99370.0;;;-5.4;95.4
28456;BME280;15682;56.742;38.866;2022-12-18T00:19:06;99360.0;;;-5.4;95.4
28456;BME280;15682;56.742;38.866;2022-12-18T00:21:09;99350.0;;;-5.4;95.4
28456;BME280;15682;56.742;38.866;2022-12-18T00:23:06;99350.0;;;-5.3;94.9
28456;BME280;15682;56.742;38.866;2022-12-18T00:25:06;99350.0;;;-5.3;94.9
28456;BME280;15682;56.742;38.866;2022-12-18T00:27:05;99340.0;;;-5.3;94.9
28456;BME280;15682;56.742;38.866;2022-12-18T00:29:09;99330.0;;;-5.3;94.9
28456;BME280;15682;56.742;38.866;2022-12-18T00:31:07;99330.0;;;-5.3;96.8
28456;BME280;15682;56.742;38.866;2022-12-18T00:33:05;99330.0;;;-5.4;97.1
28456;BME280;15682;56.742;38.866;2022-12-18T00:35:06;99330.0;;;-5.4;97.3
28456;BME280;15682;56.742;38.866;2022-12-18T00:37:04;99310.0;;;-5.4;97.3
28456;BME280;15682;56.742;38.866;2022-12-18T00:39:05;99310.0;;;-5.4;96.3
28456;BME280;15682;56.742;38.866;2022-12-18T00:41:05;99310.0;;;-5.4;95.4
28456;BME280;15682;56.742;38.866;2022-12-18T00:43:04;99310.0;;;-5.4;95.0
28456;BME280;15682;56.742;38.866;2022-12-18T00:45:04;99310.0;;;-5.4;95.0
28456;BME280;15682;56.742;38.866;2022-12-18T00:47:04;99310.0;;;-5.4;95.0
28456;BME280;15682;56.742;38.866;2022-12-18T00:49:04;99300.0;;;-5.4;95.5
28456;BME280;15682;56.742;38.866;2022-12-18T00:51:03;99300.0;;;-5.4;95.5
28456;BME280;15682;56.742;38.866;2022-12-18T00:53:03;99300.0;;;-5.4;95.0
28456;BME280;15682;56.742;38.866;2022-12-18T00:55:03;99300.0;;;-5.5;94.8
28456;BME280;15682;56.742;38.866;2022-12-18T00:57:03;99290.0;;;-5.5;94.8
28456;BME280;15682;56.742;38.866;2022-12-18T00:59:02;99280.0;;;-5.3;94.8
28456;BME280;15682;56.742;38.866;2022-12-18T01:01:03;99290.0;;;-5.3;94.8
28456;BME280;15682;56.742;38.866;2022-12-18T01:03:02;99280.0;;;-5.4;94.5
28456;BME280;15682;56.742;38.866;2022-12-18T01:05:02;99280.0;;;-5.4;94.5
28456;BME280;15682;56.742;38.866;2022-12-18T01:07:01;99280.0;;;-5.4;94.5
28456;BME280;15682;56.742;38.866;2022-12-18T01:09:02;99280.0;;;-5.4;94.5
28456;BME280;15682;56.742;38.866;2022-12-18T01:11:06;99270.0;;;-5.4;94.5
28456;BME280;15682;56.742;38.866;2022-12-18T01:13:01;99270.0;;;-5.3;95.1
28456;BME280;15682;56.742;38.866;2022-12-18T01:15:01;99270.0;;;-5.3;95.1
28456;BME280;15682;56.742;38.866;2022-12-18T01:17:00;99270.0;;;-5.3;95.1
28456;BME280;15682;56.742;38.866;2022-12-18T01:19:00;99260.0;;;-5.5;96.2
28456;BME280;15682;56.742;38.866;2022-12-18T01:21:00;99250.0;;;-5.5;95.1
28456;BME280;15682;56.742;38.866;2022-12-18T01:23:00;99250.0;;;-5.5;95.0
28456;BME280;15682;56.742;38.866;2022-12-18T01:25:00;99250.0;;;-5.4;95.0
28456;BME280;15682;56.742;38.866;2022-12-18T01:26:59;99240.0;;;-5.4;95.0
28456;BME280;15682;56.742;38.866;2022-12-18T01:28:59;99230.0;;;-5.4;95.0
28456;BME280;15682;56.742;38.866;2022-12-18T01:31:10;99220.0;;;-5.4;95.0
28456;BME280;15682;56.742;38.866;2022-12-18T01:32:59;99220.0;;;-5.4;94.9
28456;BME280;15682;56.742;38.866;2022-12-18T01:34:59;99220.0;;;-5.5;94.9
28456;BME280;15682;56.742;38.866;2022-12-18T01:36:58;99210.0;;;-5.6;94.9
28456;BME280;15682;56.742;38.866;2022-12-18T01:38:59;99210.0;;;-5.6;94.9
28456;BME280;15682;56.742;38.866;2022-12-18T01:40:58;99210.0;;;-5.6;94.9
28456;BME280;15682;56.742;38.866;2022-12-18T01:42:58;99210.0;;;-5.5;95.4
28456;BME280;15682;56.742;38.866;2022-12-18T01:45:01;99200.0;;;-5.5;95.4
28456;BME280;15682;56.742;38.866;2022-12-18T01:46:57;99200.0;;;-5.5;95.4
28456;BME280;15682;56.742;38.866;2022-12-18T01:49:00;99190.0;;;-5.5;95.4
28456;BME280;15682;56.742;38.866;2022-12-18T01:50:57;99190.0;;;-5.5;95.4
28456;BME280;15682;56.742;38.866;2022-12-18T01:53:00;99190.0;;;-5.6;95.5
28456;BME280;15682;56.742;38.866;2022-12-18T01:54:57;99190.0;;;-5.6;95.7
28456;BME280;15682;56.742;38.866;2022-12-18T01:56:56;99190.0;;;-5.6;95.1
28456;BME280;15682;56.742;38.866;2022-12-18T01:59:00;99190.0;;;-5.5;95.1
28456;BME280;15682;56.742;38.866;2022-12-18T02:00:56;99190.0;;;-5.5;95.1
28456;BME280;15682;56.742;38.866;2022-12-18T02:02:56;99190.0;;;-5.6;94.8
28456;BME280;15682;56.742;38.866;2022-12-18T02:04:55;99190.0;;;-5.6;94.8
28456;BME280;15682;56.742;38.866;2022-12-18T02:06:59;99190.0;;;-5.6;94.8
28456;BME280;15682;56.742;38.866;2022-12-18T02:09:02;99190.0;;;-5.6;94.8
28456;BME280;15682;56.742;38.866;2022-12-18T02:11:03;99190.0;;;-5.5;95.7
28456;BME280;15682;56.742;38.866;2022-12-18T02:13:00;99190.0;;;-5.5;96.1
28456;BME280;15682;56.742;38.866;2022-12-18T02:15:00;99180.0;;;-5.6;96.1
28456;BME280;15682;56.742;38.866;2022-12-18T02:17:00;99180.0;;;-5.6;95.2
28456;BME280;15682;56.742;38.866;2022-12-18T02:18:57;99180.0;;;-5.6;95.2
28456;BME280;15682;56.742;38.866;2022-12-18T02:20:56;99180.0;;;-5.6;95.2
28456;BME280;15682;56.742;38.866;2022-12-18T02:23:04;99180.0;;;-5.6;94.8
28456;BME280;15682;56.742;38.866;2022-12-18T02:25:02;99180.0;;;-5.6;94.8
28456;BME280;15682;56.742;38.866;2022-12-18T02:26:56;99180.0;;;-5.6;94.8
28456;BME280;15682;56.742;38.866;2022-12-18T02:28:54;99180.0;;;-5.6;94.8
28456;BME280;15682;56.742;38.866;2022-12-18T02:30:53;99180.0;;;-5.6;94.8
28456;BME280;15682;56.742;38.866;2022-12-18T02:32:54;99180.0;;;-5.6;94.6
28456;BME280;15682;56.742;38.866;2022-12-18T02:34:54;99180.0;;;-5.6;94.6
28456;BME280;15682;56.742;38.866;2022-12-18T02:36:53;99180.0;;;-5.6;95.1
28456;BME280;15682;56.742;38.866;2022-12-18T02:38:52;99180.0;;;-5.6;95.1
28456;BME280;15682;56.742;38.866;2022-12-18T02:40:53;99180.0;;;-5.6;94.5
28456;BME280;15682;56.742;38.866;2022-12-18T02:42:51;99170.0;;;-5.6;94.4
28456;BME280;15682;56.742;38.866;2022-12-18T02:44:52;99170.0;;;-5.6;94.4
28456;BME280;15682;56.742;38.866;2022-12-18T02:46:52;99160.0;;;-5.5;94.4
28456;BME280;15682;56.742;38.866;2022-12-18T02:48:52;99150.0;;;-5.5;94.4
28456;BME280;15682;56.742;38.866;2022-12-18T02:50:54;99150.0;;;-5.5;94.4
28456;BME280;15682;56.742;38.866;2022-12-18T02:53:03;99150.0;;;-5.6;94.8
28456;BME280;15682;56.742;38.866;2022-12-18T02:54:57;99150.0;;;-5.6;94.8
28456;BME280;15682;56.742;38.866;2022-12-18T02:56:53;99150.0;;;-5.6;94.8
28456;BME280;15682;56.742;38.866;2022-12-18T02:58:56;99150.0;;;-5.6;94.8
28456;BME280;15682;56.742;38.866;2022-12-18T03:00:56;99150.0;;;-5.6;94.8
28456;BME280;15682;56.742;38.866;2022-12-18T03:02:53;99150.0;;;-5.6;94.1
28456;BME280;15682;56.742;38.866;2022-12-18T03:04:55;99150.0;;;-5.6;94.1
28456;BME280;15682;56.742;38.866;2022-12-18T03:06:50;99140.0;;;-5.6;94.0
28456;BME280;15682;56.742;38.866;2022-12-18T03:08:52;99140.0;;;-5.6;94.0
28456;BME280;15682;56.742;38.866;2022-12-18T03:10:52;99140.0;;;-5.6;94.0
28456;BME280;15682;56.742;38.866;2022-12-18T03:12:52;99140.0;;;-5.6;94.2
28456;BME280;15682;56.742;38.866;2022-12-18T03:14:49;99150.0;;;-5.6;94.2
28456;BME280;15682;56.742;38.866;2022-12-18T03:16:49;99150.0;;;-5.6;94.2
28456;BME280;15682;56.742;38.866;2022-12-18T03:18:50;99150.0;;;-5.6;94.2
28456;BME280;15682;56.742;38.866;2022-12-18T03:20:49;99140.0;;;-5.6;94.2
28456;BME280;15682;56.742;38.866;2022-12-18T03:22:55;99140.0;;;-5.8;94.3
28456;BME280;15682;56.742;38.866;2022-12-18T03:24:48;99130.0;;;-5.6;94.3
28456;BME280;15682;56.742;38.866;2022-12-18T03:26:50;99130.0;;;-5.6;94.3
28456;BME280;15682;56.742;38.866;2022-12-18T03:28:50;99130.0;;;-5.6;94.3
28456;BME280;15682;56.742;38.866;2022-12-18T03:30:47;99130.0;;;-5.8;94.3
28456;BME280;15682;56.742;38.866;2022-12-18T03:32:48;99130.0;;;-5.7;94.0
28456;BME280;15682;56.742;38.866;2022-12-18T03:34:48;99130.0;;;-5.7;95.5
28456;BME280;15682;56.742;38.866;2022-12-18T03:36:46;99130.0;;;-5.7;95.5
28456;BME280;15682;56.742;38.866;2022-12-18T03:38:46;99130.0;;;-5.7;96.0
28456;BME280;15682;56.742;38.866;2022-12-18T03:40:53;99130.0;;;-5.7;96.0
28456;BME280;15682;56.742;38.866;2022-12-18T03:42:48;99130.0;;;-5.7;96.0
28456;BME280;15682;56.742;38.866;2022-12-18T03:44:50;99130.0;;;-5.7;95.4
28456;BME280;15682;56.742;38.866;2022-12-18T03:46:49;99130.0;;;-5.7;95.4
28456;BME280;15682;56.742;38.866;2022-12-18T03:48:48;99130.0;;;-5.7;95.5
28456;BME280;15682;56.742;38.866;2022-12-18T03:50:46;99120.0;;;-5.7;94.9
28456;BME280;15682;56.742;38.866;2022-12-18T03:52:48;99120.0;;;-5.8;94.9
28456;BME280;15682;56.742;38.866;2022-12-18T03:54:45;99110.0;;;-5.8;93.4
28456;BME280;15682;56.742;38.866;2022-12-18T03:56:46;99110.0;;;-5.9;93.4
28456;BME280;15682;56.742;38.866;2022-12-18T03:58:44;99110.0;;;-5.9;93.8
28456;BME280;15682;56.742;38.866;2022-12-18T04:00:44;99110.0;;;-5.9;93.8
28456;BME280;15682;56.742;38.866;2022-12-18T04:02:45;99120.0;;;-5.9;93.7
28456;BME280;15682;56.742;38.866;2022-12-18T04:04:45;99120.0;;;-5.9;93.7
28456;BME280;15682;56.742;38.866;2022-12-18T04:06:43;99120.0;;;-5.9;93.7
28456;BME280;15682;56.742;38.866;2022-12-18T04:08:43;99120.0;;;-5.9;94.5
28456;BME280;15682;56.742;38.866;2022-12-18T04:10:42;99130.0;;;-5.9;94.5
28456;BME280;15682;56.742;38.866;2022-12-18T04:12:42;99130.0;;;-5.9;94.0
28456;BME280;15682;56.742;38.866;2022-12-18T04:14:42;99140.0;;;-5.9;94.0
28456;BME280;15682;56.742;38.866;2022-12-18T04:16:41;99140.0;;;-5.9;93.4
28456;BME280;15682;56.742;38.866;2022-12-18T04:18:44;99140.0;;;-5.9;93.4
28456;BME280;15682;56.742;38.866;2022-12-18T04:20:41;99140.0;;;-5.9;93.4
28456;BME280;15682;56.742;38.866;2022-12-18T04:22:41;99140.0;;;-5.9;94.5
28456;BME280;15682;56.742;38.866;2022-12-18T04:24:41;99130.0;;;-5.9;94.5
28456;BME280;15682;56.742;38.866;2022-12-18T04:26:40;99130.0;;;-5.9;94.5
28456;BME280;15682;56.742;38.866;2022-12-18T04:28:40;99130.0;;;-5.9;93.6
28456;BME280;15682;56.742;38.866;2022-12-18T04:30:40;99130.0;;;-5.9;93.6
28456;BME280;15682;56.742;38.866;2022-12-18T04:32:40;99130.0;;;-6.0;93.8
28456;BME280;15682;56.742;38.866;2022-12-18T04:34:39;99130.0;;;-5.9;93.8
28456;BME280;15682;56.742;38.866;2022-12-18T04:36:39;99130.0;;;-5.9;93.8
28456;BME280;15682;56.742;38.866;2022-12-18T04:38:39;99130.0;;;-5.9;93.0
28456;BME280;15682;56.742;38.866;2022-12-18T04:40:39;99130.0;;;-5.9;93.0
28456;BME280;15682;56.742;38.866;2022-12-18T04:42:39;99140.0;;;-5.9;93.5
28456;BME280;15682;56.742;38.866;2022-12-18T04:44:38;99140.0;;;-5.9;93.1
28456;BME280;15682;56.742;38.866;2022-12-18T04:46:38;99140.0;;;-5.9;93.7
28456;BME280;15682;56.742;38.866;2022-12-18T04:48:38;99140.0;;;-6.0;93.7
28456;BME280;15682;56.742;38.866;2022-12-18T04:50:38;99130.0;;;-6.0;93.7
28456;BME280;15682;56.742;38.866;2022-12-18T04:52:37;99120.0;;;-6.0;94.0
28456;BME280;15682;56.742;38.866;2022-12-18T04:54:37;99110.0;;;-6.0;94.0
28456;BME280;15682;56.742;38.866;2022-12-18T04:56:37;99110.0;;;-6.0;94.2
28456;BME280;15682;56.742;38.866;2022-12-18T04:58:37;99120.0;;;-6.0;93.7
28456;BME280;15682;56.742;38.866;2022-12-18T05:00:37;99110.0;;;-6.0;93.7
28456;BME280;15682;56.742;38.866;2022-12-18T05:02:36;99110.0;;;-6.0;93.6
28456;BME280;15682;56.742;38.866;2022-12-18T05:04:36;99110.0;;;-6.0;93.6
28456;BME280;15682;56.742;38.866;2022-12-18T05:06:36;99110.0;;;-6.0;93.6
28456;BME280;15682;56.742;38.866;2022-12-18T05:08:36;99110.0;;;-6.0;93.6
28456;BME280;15682;56.742;38.866;2022-12-18T05:10:36;99110.0;;;-6.0;93.6
28456;BME280;15682;56.742;38.866;2022-12-18T05:12:35;99110.0;;;-6.0;94.5
28456;BME280;15682;56.742;38.866;2022-12-18T05:14:35;99110.0;;;-6.0;94.5
28456;BME280;15682;56.742;38.866;2022-12-18T05:16:35;99110.0;;;-6.0;93.9
28456;BME280;15682;56.742;38.866;2022-12-18T05:18:35;99110.0;;;-6.0;93.9
28456;BME280;15682;56.742;38.866;2022-12-18T05:20:34;99110.0;;;-6.0;93.9
28456;BME280;15682;56.742;38.866;2022-12-18T05:22:34;99110.0;;;-6.1;94.5
28456;BME280;15682;56.742;38.866;2022-12-18T05:24:34;99110.0;;;-6.1;95.3
28456;BME280;15682;56.742;38.866;2022-12-18T05:26:34;99120.0;;;-6.1;95.0
28456;BME280;15682;56.742;38.866;2022-12-18T05:28:35;99120.0;;;-6.1;94.4
28456;BME280;15682;56.742;38.866;2022-12-18T05:30:34;99130.0;;;-6.1;94.4
28456;BME280;15682;56.742;38.866;2022-12-18T05:32:33;99140.0;;;-6.0;94.4
28456;BME280;15682;56.742;38.866;2022-12-18T05:34:33;99140.0;;;-6.0;93.4
28456;BME280;15682;56.742;38.866;2022-12-18T05:36:33;99140.0;;;-6.0;93.4
28456;BME280;15682;56.742;38.866;2022-12-18T05:38:34;99140.0;;;-6.0;93.3
28456;BME280;15682;56.742;38.866;2022-12-18T05:40:32;99130.0;;;-5.9;93.3
28456;BME280;15682;56.742;38.866;2022-12-18T05:42:32;99130.0;;;-5.9;93.0
28456;BME280;15682;56.742;38.866;2022-12-18T05:44:32;99130.0;;;-5.9;93.0
28456;BME280;15682;56.742;38.866;2022-12-18T05:46:32;99130.0;;;-5.9;93.0
28456;BME280;15682;56.742;38.866;2022-12-18T05:48:32;99130.0;;;-6.0;93.0
28456;BME280;15682;56.742;38.866;2022-12-18T05:50:34;99130.0;;;-6.0;93.0
28456;BME280;15682;56.742;38.866;2022-12-18T05:52:31;99130.0;;;-6.0;92.7
28456;BME280;15682;56.742;38.866;2022-12-18T05:54:31;99130.0;;;-6.0;92.7
28456;BME280;15682;56.742;38.866;2022-12-18T05:56:30;99130.0;;;-6.0;92.7
28456;BME280;15682;56.742;38.866;2022-12-18T05:58:31;99130.0;;;-5.8;92.7
28456;BME280;15682;56.742;38.866;2022-12-18T06:00:31;99140.0;;;-5.8;92.7
28456;BME280;15682;56.742;38.866;2022-12-18T06:02:30;99140.0;;;-5.9;92.9
28456;BME280;15682;56.742;38.866;2022-12-18T06:04:30;99150.0;;;-5.9;93.4
28456;BME280;15682;56.742;38.866;2022-12-18T06:06:29;99150.0;;;-5.9;94.2
28456;BME280;15682;56.742;38.866;2022-12-18T06:08:29;99150.0;;;-5.9;94.2
28456;BME280;15682;56.742;38.866;2022-12-18T06:10:29;99150.0;;;-5.9;93.1
28456;BME280;15682;56.742;38.866;2022-12-18T06:12:29;99160.0;;;-5.9;94.2
28456;BME280;15682;56.742;38.866;2022-12-18T06:14:29;99150.0;;;-5.8;93.5
28456;BME280;15682;56.742;38.866;2022-12-18T06:16:29;99160.0;;;-5.8;93.5
28456;BME280;15682;56.742;38.866;2022-12-18T06:18:28;99160.0;;;-5.8;93.5
28456;BME280;15682;56.742;38.866;2022-12-18T06:20:28;99170.0;;;-5.8;93.5
28456;BME280;15682;56.742;38.866;2022-12-18T06:22:28;99170.0;;;-5.8;93.3
28456;BME280;15682;56.742;38.866;2022-12-18T06:24:28;99170.0;;;-5.7;93.3
28456;BME280;15682;56.742;38.866;2022-12-18T06:26:27;99170.0;;;-5.7;93.3
28456;BME280;15682;56.742;38.866;2022-12-18T06:28:27;99170.0;;;-5.7;93.3
28456;BME280;15682;56.742;38.866;2022-12-18T06:30:27;99170.0;;;-5.7;93.0
28456;BME280;15682;56.742;38.866;2022-12-18T06:32:27;99170.0;;;-5.7;93.0
28456;BME280;15682;56.742;38.866;2022-12-18T06:34:27;99170.0;;;-5.7;92.5
28456;BME280;15682;56.742;38.866;2022-12-18T06:36:30;99170.0;;;-5.7;92.5
28456;BME280;15682;56.742;38.866;2022-12-18T06:38:26;99170.0;;;-5.6;92.5
28456;BME280;15682;56.742;38.866;2022-12-18T06:40:26;99180.0;;;-5.6;92.5
28456;BME280;15682;56.742;38.866;2022-12-18T06:42:26;99180.0;;;-5.6;92.3
28456;BME280;15682;56.742;38.866;2022-12-18T06:44:26;99180.0;;;-5.6;92.3
28456;BME280;15682;56.742;38.866;2022-12-18T06:46:27;99180.0;;;-5.6;91.9
28456;BME280;15682;56.742;38.866;2022-12-18T06:48:25;99180.0;;;-5.6;91.9
28456;BME280;15682;56.742;38.866;2022-12-18T06:50:25;99180.0;;;-5.6;91.9
28456;BME280;15682;56.742;38.866;2022-12-18T06:52:25;99180.0;;;-5.7;92.5
28456;BME280;15682;56.742;38.866;2022-12-18T06:54:25;99180.0;;;-5.7;92.5
28456;BME280;15682;56.742;38.866;2022-12-18T06:56:24;99180.0;;;-5.7;93.3
28456;BME280;15682;56.742;38.866;2022-12-18T06:58:24;99190.0;;;-5.7;94.0
28456;BME280;15682;56.742;38.866;2022-12-18T07:00:24;99200.0;;;-5.5;92.7
28456;BME280;15682;56.742;38.866;2022-12-18T07:02:24;99200.0;;;-5.5;92.0
28456;BME280;15682;56.742;38.866;2022-12-18T07:04:27;99200.0;;;-5.5;92.0
28456;BME280;15682;56.742;38.866;2022-12-18T07:06:25;99200.0;;;-5.4;92.0
28456;BME280;15682;56.742;38.866;2022-12-18T07:08:23;99200.0;;;-5.5;92.0
28456;BME280;15682;56.742;38.866;2022-12-18T07:10:23;99200.0;;;-5.5;92.0
28456;BME280;15682;56.742;38.866;2022-12-18T07:12:23;99200.0;;;-5.5;92.0
28456;BME280;15682;56.742;38.866;2022-12-18T07:14:23;99200.0;;;-5.5;92.0
28456;BME280;15682;56.742;38.866;2022-12-18T07:16:22;99200.0;;;-5.3;92.0
28456;BME280;15682;56.742;38.866;2022-12-18T07:18:22;99210.0;;;-5.3;92.0
28456;BME280;15682;56.742;38.866;2022-12-18T07:20:22;99210.0;;;-5.3;92.6
28456;BME280;15682;56.742;38.866;2022-12-18T07:22:22;99210.0;;;-5.3;92.1
28456;BME280;15682;56.742;38.866;2022-12-18T07:24:22;99210.0;;;-5.3;92.1
28456;BME280;15682;56.742;38.866;2022-12-18T07:26:22;99210.0;;;-5.3;92.1
28456;BME280;15682;56.742;38.866;2022-12-18T07:28:21;99210.0;;;-5.3;93.0
28456;BME280;15682;56.742;38.866;2022-12-18T07:30:21;99210.0;;;-5.3;93.0
28456;BME280;15682;56.742;38.866;2022-12-18T07:32:21;99210.0;;;-5.3;92.4
28456;BME280;15682;56.742;38.866;2022-12-18T07:34:21;99210.0;;;-5.3;92.6
28456;BME280;15682;56.742;38.866;2022-12-18T07:36:21;99210.0;;;-5.2;92.6
28456;BME280;15682;56.742;38.866;2022-12-18T07:38:21;99210.0;;;-5.2;92.6
28456;BME280;15682;56.742;38.866;2022-12-18T07:40:20;99210.0;;;-5.2;92.6
28456;BME280;15682;56.742;38.866;2022-12-18T07:42:20;99220.0;;;-5.3;92.6
28456;BME280;15682;56.742;38.866;2022-12-18T07:44:20;99220.0;;;-5.3;92.5
28456;BME280;15682;56.742;38.866;2022-12-18T07:46:20;99230.0;;;-5.3;91.9
28456;BME280;15682;56.742;38.866;2022-12-18T07:48:20;99230.0;;;-5.0;91.9
28456;BME280;15682;56.742;38.866;2022-12-18T07:50:19;99250.0;;;-4.9;91.4
28456;BME280;15682;56.742;38.866;2022-12-18T07:52:19;99250.0;;;-5.0;91.4
28456;BME280;15682;56.742;38.866;2022-12-18T07:54:19;99250.0;;;-5.0;91.3
28456;BME280;15682;56.742;38.866;2022-12-18T07:56:20;99260.0;;;-5.0;91.3
28456;BME280;15682;56.742;38.866;2022-12-18T07:58:19;99260.0;;;-4.7;91.3
28456;BME280;15682;56.742;38.866;2022-12-18T08:00:19;99260.0;;;-4.7;90.5
28456;BME280;15682;56.742;38.866;2022-12-18T08:02:18;99260.0;;;-4.7;90.5
28456;BME280;15682;56.742;38.866;2022-12-18T08:04:18;99250.0;;;-4.8;90.4
28456;BME280;15682;56.742;38.866;2022-12-18T08:06:18;99240.0;;;-4.8;91.1
28456;BME280;15682;56.742;38.866;2022-12-18T08:08:18;99240.0;;;-4.8;91.1
28456;BME280;15682;56.742;38.866;2022-12-18T08:10:18;99240.0;;;-4.7;91.1
28456;BME280;15682;56.742;38.866;2022-12-18T08:12:18;99240.0;;;-4.6;89.8
28456;BME280;15682;56.742;38.866;2022-12-18T08:14:18;99250.0;;;-4.6;90.4
28456;BME280;15682;56.742;38.866;2022-12-18T08:16:18;99260.0;;;-4.6;90.4
28456;BME280;15682;56.742;38.866;2022-12-18T08:18:17;99260.0;;;-4.6;90.4
28456;BME280;15682;56.742;38.866;2022-12-18T08:20:17;99260.0;;;-4.6;90.4
28456;BME280;15682;56.742;38.866;2022-12-18T08:22:17;99260.0;;;-4.7;90.4
28456;BME280;15682;56.742;38.866;2022-12-18T08:24:17;99260.0;;;-4.6;89.7
28456;BME280;15682;56.742;38.866;2022-12-18T08:26:17;99260.0;;;-4.6;89.7
28456;BME280;15682;56.742;38.866;2022-12-18T08:28:16;99260.0;;;-4.6;90.3
28456;BME280;15682;56.742;38.866;2022-12-18T08:30:16;99260.0;;;-4.6;90.3
28456;BME280;15682;56.742;38.866;2022-12-18T08:32:16;99260.0;;;-4.6;90.3
28456;BME280;15682;56.742;38.866;2022-12-18T08:34:16;99260.0;;;-4.6;91.0
28456;BME280;15682;56.742;38.866;2022-12-18T08:36:16;99260.0;;;-4.6;90.4
28456;BME280;15682;56.742;38.866;2022-12-18T08:38:15;99270.0;;;-4.6;90.4
28456;BME280;15682;56.742;38.866;2022-12-18T08:40:15;99270.0;;;-4.6;90.4
28456;BME280;15682;56.742;38.866;2022-12-18T08:42:15;99280.0;;;-4.5;90.9
28456;BME280;15682;56.742;38.866;2022-12-18T08:44:15;99290.0;;;-4.4;90.2
28456;BME280;15682;56.742;38.866;2022-12-18T08:46:15;99290.0;;;-4.4;90.2
28456;BME280;15682;56.742;38.866;2022-12-18T08:48:15;99290.0;;;-4.4;90.9
28456;BME280;15682;56.742;38.866;2022-12-18T08:50:14;99290.0;;;-4.4;90.4
28456;BME280;15682;56.742;38.866;2022-12-18T08:52:14;99290.0;;;-4.5;90.4
28456;BME280;15682;56.742;38.866;2022-12-18T08:54:14;99290.0;;;-4.5;90.2
28456;BME280;15682;56.742;38.866;2022-12-18T08:56:15;99300.0;;;-4.6;90.2
28456;BME280;15682;56.742;38.866;2022-12-18T08:58:14;99300.0;;;-4.6;90.9
28456;BME280;15682;56.742;38.866;2022-12-18T09:00:14;99300.0;;;-4.6;90.9
28456;BME280;15682;56.742;38.866;2022-12-18T09:02:13;99300.0;;;-4.6;90.1
28456;BME280;15682;56.742;38.866;2022-12-18T09:04:13;99300.0;;;-4.6;90.5
28456;BME280;15682;56.742;38.866;2022-12-18T09:06:13;99310.0;;;-4.6;90.9
28456;BME280;15682;56.742;38.866;2022-12-18T09:08:13;99310.0;;;-4.6;89.8
28456;BME280;15682;56.742;38.866;2022-12-18T09:10:13;99310.0;;;-4.5;89.8
28456;BME280;15682;56.742;38.866;2022-12-18T09:12:13;99340.0;;;-4.6;89.8
28456;BME280;15682;56.742;38.866;2022-12-18T09:14:12;99340.0;;;-4.6;90.5
28456;BME280;15682;56.742;38.866;2022-12-18T09:16:13;99340.0;;;-4.6;89.5
28456;BME280;15682;56.742;38.866;2022-12-18T09:18:12;99340.0;;;-4.6;89.5
28456;BME280;15682;56.742;38.866;2022-12-18T09:20:12;99340.0;;;-4.5;89.5
28456;BME280;15682;56.742;38.866;2022-12-18T09:22:12;99340.0;;;-4.5;90.1
28456;BME280;15682;56.742;38.866;2022-12-18T09:24:13;99340.0;;;-4.6;90.2
28456;BME280;15682;56.742;38.866;2022-12-18T09:26:11;99340.0;;;-4.6;90.2
28456;BME280;15682;56.742;38.866;2022-12-18T09:28:16;99340.0;;;-4.5;90.2
28456;BME280;15682;56.742;38.866;2022-12-18T09:30:11;99340.0;;;-4.7;90.2
28456;BME280;15682;56.742;38.866;2022-12-18T09:32:11;99350.0;;;-4.7;90.2
28456;BME280;15682;56.742;38.866;2022-12-18T09:34:11;99350.0;;;-4.7;90.5
28456;BME280;15682;56.742;38.866;2022-12-18T09:36:13;99350.0;;;-4.6;89.5
28456;BME280;15682;56.742;38.866;2022-12-18T09:38:12;99350.0;;;-4.6;89.5
28456;BME280;15682;56.742;38.866;2022-12-18T09:40:13;99350.0;;;-4.6;90.3
28456;BME280;15682;56.742;38.866;2022-12-18T09:42:13;99360.0;;;-4.6;89.4
28456;BME280;15682;56.742;38.866;2022-12-18T09:44:21;99360.0;;;-4.7;89.7
28456;BME280;15682;56.742;38.866;2022-12-18T09:46:15;99360.0;;;-4.7;89.7
28456;BME280;15682;56.742;38.866;2022-12-18T09:48:15;99370.0;;;-4.7;90.0
28456;BME280;15682;56.742;38.866;2022-12-18T09:50:22;99370.0;;;-4.7;90.0
28456;BME280;15682;56.742;38.866;2022-12-18T09:52:14;99380.0;;;-4.5;89.4
28456;BME280;15682;56.742;38.866;2022-12-18T09:54:13;99380.0;;;-4.7;89.5
28456;BME280;15682;56.742;38.866;2022-12-18T09:56:13;99380.0;;;-4.7;90.0
28456;BME280;15682;56.742;38.866;2022-12-18T09:58:15;99380.0;;;-4.7;90.5
28456;BME280;15682;56.742;38.866;2022-12-18T10:00:16;99400.0;;;-4.7;89.7
28456;BME280;15682;56.742;38.866;2022-12-18T10:02:14;99400.0;;;-4.6;89.7
28456;BME280;15682;56.742;38.866;2022-12-18T10:04:08;99400.0;;;-4.6;90.0
28456;BME280;15682;56.742;38.866;2022-12-18T10:06:13;99400.0;;;-4.6;90.2
28456;BME280;15682;56.742;38.866;2022-12-18T10:08:12;99400.0;;;-4.6;90.2
28456;BME280;15682;56.742;38.866;2022-12-18T10:10:14;99400.0;;;-4.6;90.2
28456;BME280;15682;56.742;38.866;2022-12-18T10:12:12;99410.0;;;-4.6;90.2
28456;BME280;15682;56.742;38.866;2022-12-18T10:14:13;99410.0;;;-4.5;89.9
28456;BME280;15682;56.742;38.866;2022-12-18T10:16:12;99420.0;;;-4.7;89.9
28456;BME280;15682;56.742;38.866;2022-12-18T10:18:19;99420.0;;;-4.5;89.9
28456;BME280;15682;56.742;38.866;2022-12-18T10:20:13;99430.0;;;-4.5;90.8
28456;BME280;15682;56.742;38.866;2022-12-18T10:22:15;99430.0;;;-4.6;90.1
28456;BME280;15682;56.742;38.866;2022-12-18T10:24:14;99430.0;;;-4.6;90.0
28456;BME280;15682;56.742;38.866;2022-12-18T10:26:08;99430.0;;;-4.6;90.7
28456;BME280;15682;56.742;38.866;2022-12-18T10:28:10;99440.0;;;-4.6;90.7
28456;BME280;15682;56.742;38.866;2022-12-18T10:30:12;99440.0;;;-4.6;90.7
28456;BME280;15682;56.742;38.866;2022-12-18T10:32:07;99460.0;;;-4.8;90.7
28456;BME280;15682;56.742;38.866;2022-12-18T10:34:09;99460.0;;;-4.8;91.1
28456;BME280;15682;56.742;38.866;2022-12-18T10:36:06;99460.0;;;-4.8;91.1
28456;BME280;15682;56.742;38.866;2022-12-18T10:38:19;99460.0;;;-4.8;91.1
28456;BME280;15682;56.742;38.866;2022-12-18T10:40:09;99460.0;;;-4.8;91.1
28456;BME280;15682;56.742;38.866;2022-12-18T10:42:11;99460.0;;;-4.8;91.3
28456;BME280;15682;56.742;38.866;2022-12-18T10:44:14;99460.0;;;-4.8;91.6
28456;BME280;15682;56.742;38.866;2022-12-18T10:46:13;99460.0;;;-4.8;90.7
28456;BME280;15682;56.742;38.866;2022-12-18T10:48:17;99460.0;;;-4.7;90.7
28456;BME280;15682;56.742;38.866;2022-12-18T10:50:10;99460.0;;;-4.7;90.7
28456;BME280;15682;56.742;38.866;2022-12-18T10:52:13;99470.0;;;-4.8;91.4